createdAt,value
2024-01-16T05:04:31.450Z,9.23
2024-01-16T05:08:44.120Z,15.40
2024-01-16T05:12:55.710Z,16.30
2024-01-16T05:17:07.589Z,13.13
2024-01-16T05:21:19.247Z,12.03
2024-01-16T05:25:31.867Z,6.77
2024-01-16T05:29:44.701Z,14.10
2024-01-16T05:33:56.559Z,7.43
2024-01-16T05:38:08.253Z,6.80
2024-01-16T05:42:19.855Z,7.17
2024-01-16T05:46:34.542Z,6.13
2024-01-16T05:50:46.247Z,11.13
2024-01-16T05:54:59.237Z,9.57
2024-01-16T05:59:10.843Z,11.80
2024-01-16T06:03:22.362Z,8.77
2024-01-16T06:07:33.845Z,8.70
2024-01-16T06:11:45.382Z,7.30
2024-01-16T06:15:56.901Z,9.60
2024-01-16T06:20:08.741Z,8.63
2024-01-16T06:24:20.256Z,6.30
2024-01-16T06:28:31.728Z,13.60
2024-01-16T06:32:43.349Z,11.20
2024-01-16T06:36:54.969Z,6.73
2024-01-16T06:41:07.206Z,21.30
2024-01-16T06:45:20.214Z,17.50
2024-01-16T06:49:31.756Z,36.70
2024-01-16T06:53:43.332Z,23.50
2024-01-16T06:57:54.901Z,20.57
2024-01-16T07:02:07.136Z,17.10
2024-01-16T07:06:18.732Z,11.93
2024-01-16T07:10:30.456Z,12.90
2024-01-16T07:14:41.997Z,10.87
2024-01-16T07:18:54.759Z,10.70
2024-01-16T07:23:06.493Z,13.57
2024-01-16T07:27:17.984Z,14.83
2024-01-16T07:31:29.497Z,10.57
2024-01-16T07:35:42.467Z,11.93
2024-01-16T07:39:54.195Z,12.70
2024-01-16T07:44:05.702Z,16.40
2024-01-16T07:48:17.381Z,16.87
2024-01-16T07:52:29.528Z,12.53
2024-01-16T07:56:41.187Z,16.10
2024-01-16T08:00:52.912Z,15.97
2024-01-16T08:05:05.739Z,12.70
2024-01-16T08:09:17.262Z,17.13
2024-01-16T08:13:29.497Z,15.40
2024-01-16T08:17:41.203Z,18.17
2024-01-16T08:21:52.777Z,17.37
2024-01-16T08:26:04.407Z,15.50
2024-01-16T08:30:16.388Z,17.17
2024-01-16T08:34:28.001Z,15.87
2024-01-16T08:38:39.556Z,16.33
2024-01-16T08:42:57.988Z,14.90
2024-01-16T08:47:10.554Z,18.20
2024-01-16T08:51:22.179Z,16.70
2024-01-16T08:55:33.658Z,21.97
2024-01-16T08:59:45.569Z,17.77
2024-01-16T09:03:57.302Z,18.37
2024-01-16T09:08:11.854Z,21.47
2024-01-16T09:12:25.153Z,21.47
2024-01-16T09:16:36.730Z,19.50
2024-01-16T09:20:49.615Z,25.23
2024-01-16T09:25:02.480Z,21.80
2024-01-16T09:29:15.505Z,15.10
2024-01-16T09:33:27.386Z,17.80
2024-01-16T09:37:41.558Z,16.60
2024-01-16T09:41:53.543Z,18.53
2024-01-16T09:46:06.884Z,18.83
2024-01-16T09:50:19.988Z,20.97
2024-01-16T09:54:31.500Z,16.40
2024-01-16T09:58:44.757Z,17.80
2024-01-16T10:03:00.010Z,17.17
2024-01-16T10:07:13.770Z,16.97
2024-01-16T10:11:25.252Z,20.53
2024-01-16T10:15:36.911Z,19.23
2024-01-16T10:19:56.331Z,16.60
2024-01-16T10:24:14.323Z,14.40
2024-01-16T10:28:26.034Z,20.30
2024-01-16T10:32:40.152Z,12.43
2024-01-16T10:36:59.093Z,13.77
2024-01-16T10:41:15.615Z,16.37
2024-01-16T10:45:27.860Z,14.37
2024-01-16T10:49:43.333Z,19.03
2024-01-16T10:54:06.589Z,12.00
2024-01-16T10:58:22.609Z,13.30
2024-01-16T11:02:44.124Z,15.17
2024-01-16T11:06:55.878Z,14.00
2024-01-16T11:11:09.120Z,14.93
2024-01-16T11:15:20.924Z,14.57
2024-01-16T11:19:48.289Z,13.17
2024-01-16T11:24:06.039Z,11.47
2024-01-16T11:28:17.581Z,13.13
2024-01-16T11:32:41.705Z,11.30
2024-01-16T11:36:58.310Z,12.77
2024-01-16T11:41:09.864Z,14.53
2024-01-16T11:45:30.474Z,14.77
2024-01-16T11:49:42.404Z,11.17
2024-01-16T11:53:54.105Z,11.50
2024-01-16T11:58:46.123Z,13.20
2024-01-16T12:02:58.365Z,11.33
2024-01-16T12:07:10.116Z,11.90
2024-01-16T12:11:27.862Z,12.47
2024-01-16T12:15:42.698Z,10.63
2024-01-16T12:19:54.631Z,10.93
2024-01-16T12:24:11.023Z,11.30
2024-01-16T12:28:32.108Z,9.37
2024-01-16T12:32:49.069Z,7.63
2024-01-16T12:37:07.938Z,8.93
2024-01-16T12:41:26.484Z,10.17
2024-01-16T12:45:41.281Z,7.77
2024-01-16T12:49:53.983Z,8.17
2024-01-16T12:54:14.056Z,7.10
2024-01-16T12:58:28.217Z,6.03
2024-01-16T13:02:39.787Z,7.73
2024-01-16T13:06:51.617Z,6.03
2024-01-16T13:11:08.313Z,4.67
2024-01-16T13:15:19.826Z,8.57
2024-01-16T13:19:34.543Z,9.53
2024-01-16T13:23:47.170Z,6.20
2024-01-16T13:27:58.661Z,9.67
2024-01-16T13:32:10.154Z,8.50
2024-01-16T13:36:40.522Z,6.87
2024-01-16T13:40:55.469Z,9.00
2024-01-16T13:45:07.215Z,8.83
2024-01-16T13:49:18.818Z,9.43
2024-01-16T13:53:30.525Z,13.27
2024-01-16T13:57:42.228Z,10.30
2024-01-16T14:01:53.769Z,11.90
2024-01-16T14:06:05.577Z,15.73
2024-01-16T14:10:18.523Z,10.67
2024-01-16T14:14:30.110Z,11.60
2024-01-16T14:18:41.799Z,10.23
2024-01-16T14:22:57.228Z,11.43
2024-01-16T14:27:09.128Z,7.03
2024-01-16T14:31:20.709Z,11.40
2024-01-16T14:35:32.317Z,9.97
2024-01-16T14:39:43.947Z,6.30
2024-01-16T14:43:55.641Z,10.07
2024-01-16T14:48:07.366Z,9.47
2024-01-16T14:52:19.215Z,7.83
2024-01-16T14:56:31.423Z,12.10
2024-01-16T15:00:46.559Z,10.00
2024-01-16T15:04:58.210Z,9.53
2024-01-16T15:09:13.984Z,10.70
2024-01-16T15:13:25.998Z,10.73
2024-01-16T15:17:37.988Z,12.83
2024-01-16T15:21:49.622Z,11.00
2024-01-16T15:26:04.280Z,7.53
2024-01-16T15:30:16.233Z,10.30
2024-01-16T15:34:28.082Z,13.50
2024-01-16T15:38:39.831Z,19.20
2024-01-16T15:42:51.763Z,18.80
2024-01-16T15:47:04.443Z,11.73
2024-01-16T15:51:17.279Z,9.70
2024-01-16T15:55:28.926Z,11.83
2024-01-16T15:59:40.488Z,20.37
2024-01-16T16:03:52.053Z,13.87
2024-01-16T16:08:05.418Z,12.40
2024-01-16T16:12:18.897Z,9.57
2024-01-16T16:16:32.066Z,10.57
2024-01-16T16:20:43.852Z,11.93
2024-01-16T16:24:55.372Z,10.60
2024-01-16T16:29:10.097Z,14.07
2024-01-16T16:33:21.814Z,15.83
2024-01-16T16:37:33.477Z,13.03
2024-01-16T16:41:45.117Z,13.63
2024-01-16T16:45:56.647Z,14.43
2024-01-16T16:50:10.279Z,14.50
2024-01-16T16:54:21.844Z,18.23
2024-01-16T16:58:33.547Z,23.20
2024-01-16T17:02:45.071Z,20.07
2024-01-16T17:06:57.943Z,13.53
2024-01-16T17:11:10.201Z,14.57
2024-01-16T17:15:21.703Z,11.27
2024-01-16T17:19:33.215Z,15.60
2024-01-16T17:23:45.718Z,15.17
2024-01-16T17:27:57.239Z,24.53
2024-01-16T17:32:08.893Z,21.03
2024-01-16T17:36:21.392Z,16.13
2024-01-16T17:40:33.186Z,17.97
2024-01-16T17:44:49.083Z,16.07
2024-01-16T17:49:00.792Z,14.43
2024-01-16T17:53:13.189Z,16.97
2024-01-16T17:57:24.830Z,18.73
2024-01-16T18:01:36.426Z,18.93
2024-01-16T18:05:50.648Z,13.60
2024-01-16T18:10:02.806Z,13.67
2024-01-16T18:14:15.016Z,16.83
2024-01-16T18:18:27.622Z,14.90
2024-01-16T18:22:39.415Z,18.10
2024-01-16T18:26:51.222Z,21.67
2024-01-16T18:31:03.977Z,20.37
2024-01-16T18:35:19.842Z,19.70
2024-01-16T18:39:32.735Z,29.17
2024-01-16T18:43:44.489Z,34.80
2024-01-16T18:47:56.353Z,26.00
2024-01-16T18:52:08.548Z,22.53
2024-01-16T18:56:20.197Z,22.27
2024-01-16T19:00:31.776Z,22.20
2024-01-16T19:04:47.556Z,22.90
2024-01-16T19:08:59.535Z,23.63
2024-01-16T19:13:12.245Z,22.00
2024-01-16T19:17:23.928Z,27.80
2024-01-16T19:21:35.498Z,27.73
2024-01-16T19:25:48.797Z,25.73
2024-01-16T19:30:04.913Z,29.83
2024-01-16T19:34:16.618Z,27.50
2024-01-16T19:38:28.557Z,30.47
2024-01-16T19:42:40.704Z,25.47
2024-01-16T19:46:54.240Z,23.30
2024-01-16T19:51:06.352Z,21.80
2024-01-16T19:55:20.587Z,23.13
2024-01-16T19:59:33.872Z,20.13
2024-01-16T20:03:45.423Z,15.50
2024-01-16T20:07:57.117Z,18.97
2024-01-16T20:12:08.978Z,17.80
2024-01-16T20:16:22.681Z,12.07
2024-01-16T20:20:35.207Z,14.63
2024-01-16T20:24:46.783Z,16.30
2024-01-16T20:28:58.424Z,21.37
2024-01-16T20:33:12.984Z,19.87
2024-01-16T20:37:24.567Z,16.50
2024-01-16T20:41:36.338Z,18.07
2024-01-16T20:45:48.504Z,23.03
2024-01-16T20:50:00.323Z,19.73
2024-01-16T20:54:12.168Z,20.83
2024-01-16T20:58:25.246Z,17.20
2024-01-16T21:02:36.773Z,20.20
2024-01-16T21:06:49.280Z,26.07
2024-01-16T21:11:00.924Z,19.57
2024-01-16T21:15:12.513Z,22.20
2024-01-16T21:19:24.079Z,23.37
2024-01-16T21:23:36.200Z,20.73
2024-01-16T21:27:48.136Z,22.83
2024-01-16T21:32:00.263Z,20.77
2024-01-16T21:36:13.924Z,23.77
2024-01-16T21:40:25.508Z,24.77
2024-01-16T21:44:37.092Z,25.37
2024-01-16T21:48:48.798Z,27.33
2024-01-16T21:53:00.693Z,23.93
2024-01-16T21:57:12.287Z,15.47
2024-01-16T22:01:23.805Z,12.67
2024-01-16T22:05:36.006Z,13.17
2024-01-16T22:09:47.865Z,14.13
2024-01-16T22:14:00.348Z,15.20
2024-01-16T22:18:11.987Z,12.17
2024-01-16T22:22:24.731Z,9.97
2024-01-16T22:26:36.434Z,14.00
